createdAt,value
2018-06-25T00:00:28.548Z,1017.58
2018-06-25T00:01:28.533Z,1017.60
2018-06-25T00:02:28.537Z,1017.59
2018-06-25T00:03:28.460Z,1017.59
2018-06-25T00:04:28.439Z,1017.57
2018-06-25T00:05:28.432Z,1017.60
2018-06-25T00:06:28.379Z,1017.64
2018-06-25T00:07:43.667Z,1017.62
2018-06-25T00:09:26.585Z,1017.60
2018-06-25T00:10:26.288Z,1017.63
2018-06-25T00:12:37.213Z,1017.57
2018-06-25T00:13:36.501Z,1017.60
2018-06-25T00:15:42.330Z,1017.66
2018-06-25T00:16:42.294Z,1017.63
2018-06-25T00:17:42.549Z,1017.66
2018-06-25T00:18:42.189Z,1017.61
2018-06-25T00:19:42.124Z,1017.63
2018-06-25T00:20:42.101Z,1017.63
2018-06-25T00:21:42.085Z,1017.68
2018-06-25T00:22:42.045Z,1017.75
2018-06-25T00:23:42.028Z,1017.76
2018-06-25T00:24:41.991Z,1017.71
2018-06-25T00:25:41.987Z,1017.75
2018-06-25T00:26:41.935Z,1017.72
2018-06-25T00:27:41.917Z,1017.70
2018-06-25T00:28:41.921Z,1017.73
2018-06-25T00:29:41.854Z,1017.71
2018-06-25T00:30:41.824Z,1017.71
2018-06-25T00:31:41.925Z,1017.74
2018-06-25T00:32:41.776Z,1017.74
2018-06-25T00:33:41.742Z,1017.76
2018-06-25T00:34:41.717Z,1017.76
2018-06-25T00:35:41.708Z,1017.73
2018-06-25T00:36:41.663Z,1017.67
2018-06-25T00:37:41.632Z,1017.72
2018-06-25T00:38:41.602Z,1017.70
2018-06-25T00:39:41.573Z,1017.74
2018-06-25T00:40:41.562Z,1017.77
2018-06-25T00:41:41.549Z,1017.76
2018-06-25T00:42:41.505Z,1017.77
2018-06-25T00:43:41.530Z,1017.76
2018-06-25T00:44:41.437Z,1017.75
2018-06-25T00:45:41.421Z,1017.77
2018-06-25T00:46:43.365Z,1017.73
2018-06-25T00:47:41.361Z,1017.73
2018-06-25T00:48:41.332Z,1017.69
2018-06-25T00:49:41.328Z,1017.66
2018-06-25T00:50:41.267Z,1017.64
2018-06-25T00:51:41.246Z,1017.60
2018-06-25T00:52:41.237Z,1017.61
2018-06-25T00:53:41.186Z,1017.60
2018-06-25T00:54:41.167Z,1017.58
2018-06-25T00:55:41.138Z,1017.57
2018-06-25T00:56:41.105Z,1017.63
2018-06-25T00:57:41.082Z,1017.62
2018-06-25T00:58:41.044Z,1017.63
2018-06-25T00:59:41.023Z,1017.69
2018-06-25T01:00:40.998Z,1017.67
2018-06-25T01:02:00.430Z,1017.66
2018-06-25T01:03:46.577Z,1017.68
2018-06-25T01:04:46.240Z,1017.64
2018-06-25T01:06:51.109Z,1017.61
2018-06-25T01:07:51.000Z,1017.61
2018-06-25T01:08:51.845Z,1017.60
2018-06-25T01:09:50.903Z,1017.62
2018-06-25T01:10:50.824Z,1017.65
2018-06-25T01:11:50.784Z,1017.63
2018-06-25T01:12:50.766Z,1017.62
2018-06-25T01:13:50.739Z,1017.59
2018-06-25T01:14:50.748Z,1017.59
2018-06-25T01:15:50.657Z,1017.60
2018-06-25T01:16:50.635Z,1017.59
2018-06-25T01:17:50.647Z,1017.60
2018-06-25T01:18:50.572Z,1017.69
2018-06-25T01:19:50.559Z,1017.68
2018-06-25T01:20:50.546Z,1017.67
2018-06-25T01:21:50.514Z,1017.68
2018-06-25T01:22:50.481Z,1017.68
2018-06-25T01:23:50.485Z,1017.62
2018-06-25T01:24:50.409Z,1017.64
2018-06-25T01:25:50.380Z,1017.65
2018-06-25T01:26:50.368Z,1017.63
2018-06-25T01:27:50.335Z,1017.66
2018-06-25T01:28:50.323Z,1017.68
2018-06-25T01:29:50.278Z,1017.65
2018-06-25T01:30:50.249Z,1017.67
2018-06-25T01:31:50.223Z,1017.69
2018-06-25T01:32:50.200Z,1017.66
2018-06-25T01:33:50.156Z,1017.68
2018-06-25T01:34:50.144Z,1017.65
2018-06-25T01:35:50.139Z,1017.69
2018-06-25T01:36:50.075Z,1017.64
2018-06-25T01:37:50.044Z,1017.67
2018-06-25T01:38:50.030Z,1017.65
2018-06-25T01:39:49.989Z,1017.64
2018-06-25T01:40:49.969Z,1017.64
2018-06-25T01:41:49.967Z,1017.64
2018-06-25T01:42:49.914Z,1017.60
2018-06-25T01:43:49.886Z,1017.60
2018-06-25T01:44:49.875Z,1017.57
2018-06-25T01:45:49.820Z,1017.59
2018-06-25T01:46:49.805Z,1017.56
2018-06-25T01:47:49.794Z,1017.55
2018-06-25T01:48:49.742Z,1017.58
2018-06-25T01:49:49.756Z,1017.51
2018-06-25T01:50:49.693Z,1017.56
2018-06-25T01:51:49.662Z,1017.52
2018-06-25T01:52:49.638Z,1017.49
2018-06-25T01:53:49.697Z,1017.53
2018-06-25T01:54:49.581Z,1017.56
2018-06-25T01:55:49.558Z,1017.56
2018-06-25T01:56:49.558Z,1017.54
2018-06-25T01:57:49.484Z,1017.55
2018-06-25T01:58:49.506Z,1017.53
2018-06-25T01:59:49.437Z,1017.51
2018-06-25T02:00:49.414Z,1017.53
2018-06-25T02:01:49.392Z,1017.51
2018-06-25T02:02:49.359Z,1017.56
2018-06-25T02:03:49.326Z,1017.56
2018-06-25T02:04:49.320Z,1017.61
2018-06-25T02:05:49.265Z,1017.62
2018-06-25T02:06:49.243Z,1017.64
2018-06-25T02:07:49.229Z,1017.65
2018-06-25T02:08:49.241Z,1017.64
2018-06-25T02:09:49.158Z,1017.64
2018-06-25T02:10:49.155Z,1017.68
2018-06-25T02:11:49.096Z,1017.69
2018-06-25T02:12:49.082Z,1017.71
2018-06-25T02:13:49.065Z,1017.71
2018-06-25T02:14:49.021Z,1017.73
2018-06-25T02:15:48.989Z,1017.73
2018-06-25T02:16:48.963Z,1017.77
2018-06-25T02:17:48.929Z,1017.76
2018-06-25T02:18:48.903Z,1017.77
2018-06-25T02:19:48.905Z,1017.74
2018-06-25T02:20:48.898Z,1017.73
2018-06-25T02:21:48.824Z,1017.70
2018-06-25T02:22:48.840Z,1017.72
2018-06-25T02:23:48.829Z,1017.69
2018-06-25T02:24:48.740Z,1017.69
2018-06-25T02:25:48.724Z,1017.72
2018-06-25T02:26:48.705Z,1017.70
2018-06-25T02:27:48.668Z,1017.70
2018-06-25T02:28:48.636Z,1017.70
2018-06-25T02:29:48.596Z,1017.71
2018-06-25T02:30:48.568Z,1017.70
2018-06-25T02:31:48.555Z,1017.74
2018-06-25T02:32:48.527Z,1017.74
2018-06-25T02:33:48.494Z,1017.74
2018-06-25T02:34:48.487Z,1017.77
2018-06-25T02:35:48.442Z,1017.68
2018-06-25T02:36:48.408Z,1017.67
2018-06-25T02:37:48.410Z,1017.66
2018-06-25T02:38:48.396Z,1017.71
2018-06-25T02:39:48.322Z,1017.69
2018-06-25T02:40:48.340Z,1017.67
2018-06-25T02:41:48.333Z,1017.69
2018-06-25T02:42:48.235Z,1017.71
2018-06-25T02:43:48.261Z,1017.66
2018-06-25T02:44:48.212Z,1017.67
2018-06-25T02:45:48.164Z,1017.66
2018-06-25T02:46:48.127Z,1017.68
2018-06-25T02:47:48.098Z,1017.67
2018-06-25T02:48:48.069Z,1017.61
2018-06-25T02:49:48.059Z,1017.66
2018-06-25T02:50:48.035Z,1017.65
2018-06-25T02:51:47.985Z,1017.72
2018-06-25T02:52:48.012Z,1017.66
2018-06-25T02:53:47.939Z,1017.67
2018-06-25T02:54:47.895Z,1017.68
2018-06-25T02:55:47.871Z,1017.69
2018-06-25T02:56:47.842Z,1017.73
2018-06-25T02:58:07.081Z,1017.70
2018-06-25T03:00:00.731Z,1017.69
2018-06-25T03:01:00.766Z,1017.72
2018-06-25T03:03:04.891Z,1017.74
2018-06-25T03:04:04.358Z,1017.73
2018-06-25T03:06:20.048Z,1017.73
2018-06-25T03:07:19.827Z,1017.70
2018-06-25T03:09:24.118Z,1017.75
2018-06-25T03:10:23.925Z,1017.78
2018-06-25T03:12:57.568Z,1017.82
2018-06-25T03:13:29.295Z,1017.85
2018-06-25T03:15:40.665Z,1017.93
2018-06-25T03:16:40.600Z,1017.96
2018-06-25T03:18:46.865Z,1017.96
2018-06-25T03:19:46.756Z,1017.96
2018-06-25T03:20:46.334Z,1017.95
2018-06-25T03:21:46.380Z,1017.95
2018-06-25T03:22:46.362Z,1017.96
2018-06-25T03:23:46.612Z,1017.93
2018-06-25T03:24:47.045Z,1017.87
2018-06-25T03:25:46.138Z,1017.86
2018-06-25T03:26:46.105Z,1017.82
2018-06-25T03:27:46.090Z,1017.85
2018-06-25T03:28:46.076Z,1017.86
2018-06-25T03:29:46.073Z,1017.84
2018-06-25T03:30:45.984Z,1017.88
2018-06-25T03:31:45.966Z,1017.86
2018-06-25T03:32:45.939Z,1017.86
2018-06-25T03:33:45.905Z,1017.88
2018-06-25T03:34:45.884Z,1017.91
2018-06-25T03:35:45.847Z,1017.89
2018-06-25T03:36:45.834Z,1017.89
2018-06-25T03:37:45.799Z,1017.93
2018-06-25T03:38:45.771Z,1017.93
2018-06-25T03:39:45.742Z,1017.98
2018-06-25T03:40:45.721Z,1017.96
2018-06-25T03:41:45.685Z,1017.95
2018-06-25T03:42:45.702Z,1017.99
2018-06-25T03:43:45.647Z,1018.02
2018-06-25T03:44:45.602Z,1018.03
2018-06-25T03:45:45.577Z,1018.05
2018-06-25T03:46:45.547Z,1018.06
2018-06-25T03:47:45.510Z,1018.04
2018-06-25T03:48:45.489Z,1018.09
2018-06-25T03:49:45.461Z,1018.06
2018-06-25T03:50:45.430Z,1018.12
2018-06-25T03:51:45.404Z,1018.14
2018-06-25T03:52:45.404Z,1018.11
2018-06-25T03:53:45.346Z,1018.09
2018-06-25T03:54:45.324Z,1018.13
2018-06-25T03:55:45.320Z,1018.10
2018-06-25T03:56:45.264Z,1018.10
2018-06-25T03:57:45.242Z,1018.14
2018-06-25T03:58:45.207Z,1018.14
2018-06-25T03:59:45.192Z,1018.16
2018-06-25T04:00:45.153Z,1018.18
2018-06-25T04:01:45.123Z,1018.16
2018-06-25T04:02:45.128Z,1018.15
2018-06-25T04:03:45.091Z,1018.19
2018-06-25T04:04:45.044Z,1018.20
2018-06-25T04:05:45.021Z,1018.18
2018-06-25T04:06:45.000Z,1018.19
2018-06-25T04:07:44.993Z,1018.17
2018-06-25T04:08:44.931Z,1018.19
2018-06-25T04:09:46.472Z,1018.15
2018-06-25T04:10:44.873Z,1018.11
2018-06-25T04:11:44.850Z,1018.12
2018-06-25T04:12:44.828Z,1018.13
2018-06-25T04:13:44.788Z,1018.13
2018-06-25T04:14:44.767Z,1018.19
2018-06-25T04:15:44.766Z,1018.15
2018-06-25T04:16:44.710Z,1018.18
2018-06-25T04:17:44.684Z,1018.14
2018-06-25T04:18:44.657Z,1018.15
2018-06-25T04:19:44.636Z,1018.18
2018-06-25T04:20:44.654Z,1018.17
2018-06-25T04:21:44.604Z,1018.18
2018-06-25T04:22:44.535Z,1018.21
2018-06-25T04:23:44.589Z,1018.18
2018-06-25T04:24:44.490Z,1018.20
2018-06-25T04:25:44.462Z,1018.21
2018-06-25T04:26:44.425Z,1018.23
2018-06-25T04:27:44.476Z,1018.22
2018-06-25T04:28:44.376Z,1018.21
2018-06-25T04:29:44.347Z,1018.20
2018-06-25T04:30:44.328Z,1018.25
2018-06-25T04:31:44.292Z,1018.25
2018-06-25T04:32:44.263Z,1018.22
2018-06-25T04:33:44.234Z,1018.17
2018-06-25T04:34:44.198Z,1018.19
2018-06-25T04:35:44.200Z,1018.20
2018-06-25T04:36:44.147Z,1018.20
2018-06-25T04:37:44.120Z,1018.13
2018-06-25T04:38:44.110Z,1018.13
2018-06-25T04:39:44.081Z,1018.10
2018-06-25T04:40:44.092Z,1018.16
2018-06-25T04:41:44.003Z,1018.17
2018-06-25T04:42:43.976Z,1018.16
2018-06-25T04:43:43.954Z,1018.15
2018-06-25T04:44:43.942Z,1018.13
2018-06-25T04:45:43.906Z,1018.16
2018-06-25T04:46:43.950Z,1018.15
2018-06-25T04:47:43.845Z,1018.14
2018-06-25T04:48:43.858Z,1018.16
2018-06-25T04:49:43.817Z,1018.17
2018-06-25T04:50:43.806Z,1018.16
2018-06-25T04:51:43.805Z,1018.18
2018-06-25T04:52:43.767Z,1018.19
2018-06-25T04:53:43.684Z,1018.16
2018-06-25T04:54:43.647Z,1018.19
2018-06-25T04:55:43.635Z,1018.25
2018-06-25T04:56:43.676Z,1018.26
2018-06-25T04:57:43.619Z,1018.24
2018-06-25T04:58:43.556Z,1018.28
2018-06-25T04:59:43.499Z,1018.26
2018-06-25T05:00:43.476Z,1018.30
2018-06-25T05:01:43.460Z,1018.27
2018-06-25T05:02:43.419Z,1018.27
2018-06-25T05:03:43.403Z,1018.28
2018-06-25T05:04:43.368Z,1018.32
2018-06-25T05:05:43.346Z,1018.31
2018-06-25T05:06:43.301Z,1018.31
2018-06-25T05:07:43.285Z,1018.36
2018-06-25T05:08:43.301Z,1018.33
2018-06-25T05:09:43.223Z,1018.38
2018-06-25T05:10:43.204Z,1018.38
2018-06-25T05:11:43.230Z,1018.37
2018-06-25T05:12:43.136Z,1018.46
2018-06-25T05:13:43.112Z,1018.40
2018-06-25T05:14:43.118Z,1018.39
2018-06-25T05:15:43.062Z,1018.45
2018-06-25T05:16:43.035Z,1018.45
2018-06-25T05:17:43.020Z,1018.47
2018-06-25T05:18:42.978Z,1018.48
2018-06-25T05:19:42.949Z,1018.54
2018-06-25T05:20:42.918Z,1018.47
2018-06-25T05:21:42.893Z,1018.51
2018-06-25T05:22:42.870Z,1018.55
2018-06-25T05:23:42.912Z,1018.53
2018-06-25T05:24:42.810Z,1018.58
2018-06-25T05:25:42.783Z,1018.61
2018-06-25T05:26:42.770Z,1018.62
2018-06-25T05:27:42.728Z,1018.60
2018-06-25T05:28:42.708Z,1018.60
2018-06-25T05:29:42.673Z,1018.55
2018-06-25T05:30:42.651Z,1018.54
2018-06-25T05:31:42.616Z,1018.53
2018-06-25T05:32:42.601Z,1018.55
2018-06-25T05:33:42.565Z,1018.54
2018-06-25T05:34:42.537Z,1018.55
2018-06-25T05:35:42.515Z,1018.56
2018-06-25T05:36:42.480Z,1018.57
2018-06-25T05:37:42.449Z,1018.59
2018-06-25T05:38:42.419Z,1018.55
2018-06-25T05:39:42.426Z,1018.54
2018-06-25T05:40:42.376Z,1018.57
2018-06-25T05:41:42.341Z,1018.59
2018-06-25T05:42:42.319Z,1018.59
2018-06-25T05:43:42.283Z,1018.58
2018-06-25T05:44:42.274Z,1018.63
2018-06-25T05:45:42.232Z,1018.62
2018-06-25T05:46:42.197Z,1018.60
2018-06-25T05:47:42.179Z,1018.60
2018-06-25T05:48:42.143Z,1018.60
2018-06-25T05:49:42.122Z,1018.61
2018-06-25T05:50:42.097Z,1018.62
2018-06-25T05:51:42.063Z,1018.62
2018-06-25T05:52:42.034Z,1018.63
2018-06-25T05:53:42.010Z,1018.63
2018-06-25T05:54:42.020Z,1018.58
2018-06-25T05:55:41.971Z,1018.60
2018-06-25T05:56:41.946Z,1018.60
2018-06-25T05:57:41.896Z,1018.59
2018-06-25T05:58:41.899Z,1018.64
2018-06-25T05:59:41.915Z,1018.60
2018-06-25T06:00:41.813Z,1018.62
2018-06-25T06:01:41.801Z,1018.65
2018-06-25T06:02:41.766Z,1018.70
2018-06-25T06:03:41.723Z,1018.64
2018-06-25T06:04:41.707Z,1018.66
2018-06-25T06:05:41.675Z,1018.67
2018-06-25T06:06:41.644Z,1018.64
2018-06-25T06:07:41.637Z,1018.67
2018-06-25T06:08:41.676Z,1018.68
2018-06-25T06:09:41.567Z,1018.72
2018-06-25T06:10:41.535Z,1018.72
2018-06-25T06:11:41.540Z,1018.73
2018-06-25T06:12:41.484Z,1018.77
2018-06-25T06:13:41.458Z,1018.73
2018-06-25T06:14:41.502Z,1018.77
2018-06-25T06:15:41.395Z,1018.81
2018-06-25T06:16:41.374Z,1018.82
2018-06-25T06:17:41.362Z,1018.83
2018-06-25T06:18:41.313Z,1018.84
2018-06-25T06:19:41.288Z,1018.86
2018-06-25T06:20:41.294Z,1018.87
2018-06-25T06:21:41.241Z,1018.89
2018-06-25T06:22:41.210Z,1018.88
2018-06-25T06:23:41.184Z,1018.93
2018-06-25T06:24:41.155Z,1018.90
2018-06-25T06:25:41.127Z,1018.92
2018-06-25T06:26:41.156Z,1018.96
2018-06-25T06:27:41.073Z,1018.96
2018-06-25T06:28:41.040Z,1018.97
2018-06-25T06:29:41.073Z,1018.98
2018-06-25T06:30:41.037Z,1018.99
2018-06-25T06:31:40.967Z,1018.99
2018-06-25T06:32:40.940Z,1019.01
2018-06-25T06:33:40.911Z,1019.00
2018-06-25T06:34:40.889Z,1018.98
2018-06-25T06:35:40.858Z,1018.99
2018-06-25T06:36:40.820Z,1018.99
2018-06-25T06:37:40.799Z,1018.99
2018-06-25T06:38:40.778Z,1019.02
2018-06-25T06:39:40.741Z,1019.00
2018-06-25T06:40:40.725Z,1019.01
2018-06-25T06:41:40.711Z,1019.06
2018-06-25T06:42:40.659Z,1019.07
2018-06-25T06:43:40.640Z,1019.09
2018-06-25T06:44:40.613Z,1019.10
2018-06-25T06:45:40.651Z,1019.06
2018-06-25T06:46:40.562Z,1019.10
2018-06-25T06:47:40.530Z,1019.13
2018-06-25T06:48:40.499Z,1019.14
2018-06-25T06:49:40.473Z,1019.14
2018-06-25T06:50:58.511Z,1019.18
2018-06-25T06:52:45.213Z,1019.16
2018-06-25T06:53:44.918Z,1019.16
2018-06-25T06:55:55.207Z,1019.18
2018-06-25T06:56:55.139Z,1019.19
2018-06-25T06:58:57.460Z,1019.26
2018-06-25T06:59:56.421Z,1019.29
2018-06-25T07:02:01.414Z,1019.26
2018-06-25T07:03:01.022Z,1019.23
2018-06-25T07:05:02.204Z,1019.23
2018-06-25T07:06:01.064Z,1019.26
2018-06-25T07:08:04.580Z,1019.32
2018-06-25T07:09:04.724Z,1019.33
2018-06-25T07:11:23.800Z,1019.31
2018-06-25T07:12:23.191Z,1019.33
2018-06-25T07:14:27.863Z,1019.29
2018-06-25T07:15:27.505Z,1019.34
2018-06-25T07:17:46.383Z,1019.33
2018-06-25T07:18:46.301Z,1019.31
2018-06-25T07:20:54.669Z,1019.36
2018-06-25T07:21:54.982Z,1019.32
2018-06-25T07:24:00.342Z,1019.34
2018-06-25T07:25:00.060Z,1019.37
2018-06-25T07:27:10.342Z,1019.34
2018-06-25T07:28:10.313Z,1019.33
2018-06-25T07:30:38.190Z,1019.32
2018-06-25T07:31:38.221Z,1019.31
2018-06-25T07:34:03.031Z,1019.34
2018-06-25T07:35:03.008Z,1019.31
2018-06-25T07:37:03.415Z,1019.30
2018-06-25T07:38:03.598Z,1019.32
2018-06-25T07:40:08.051Z,1019.31
2018-06-25T07:41:07.615Z,1019.34
2018-06-25T07:43:11.045Z,1019.29
2018-06-25T07:44:10.880Z,1019.30
2018-06-25T07:46:18.777Z,1019.27
2018-06-25T07:47:18.820Z,1019.29
2018-06-25T07:49:22.116Z,1019.32
2018-06-25T07:50:22.073Z,1019.34
2018-06-25T07:52:29.222Z,1019.30
2018-06-25T07:53:29.058Z,1019.38
2018-06-25T07:55:37.738Z,1019.34
2018-06-25T07:56:37.407Z,1019.34
2018-06-25T07:57:36.644Z,1019.32
2018-06-25T07:58:36.960Z,1019.37
2018-06-25T07:59:37.324Z,1019.35
2018-06-25T08:00:36.559Z,1019.34
2018-06-25T08:01:36.526Z,1019.38
2018-06-25T08:02:36.504Z,1019.38
2018-06-25T08:03:36.532Z,1019.46
2018-06-25T08:04:36.463Z,1019.44
2018-06-25T08:05:36.441Z,1019.42
2018-06-25T08:06:36.410Z,1019.47
2018-06-25T08:07:36.459Z,1019.50
2018-06-25T08:08:36.347Z,1019.48
2018-06-25T08:09:36.324Z,1019.54
2018-06-25T08:10:36.304Z,1019.49
2018-06-25T08:11:46.219Z,1019.49
2018-06-25T08:13:42.596Z,1019.58
2018-06-25T08:14:42.516Z,1019.58
2018-06-25T08:16:55.424Z,1019.57
2018-06-25T08:20:17.135Z,1019.55
2018-06-25T08:21:17.021Z,1019.52
2018-06-25T08:23:22.545Z,1019.54
2018-06-25T08:24:21.423Z,1019.52
2018-06-25T08:26:31.763Z,1019.50
2018-06-25T08:27:31.699Z,1019.51
2018-06-25T08:29:35.775Z,1019.58
2018-06-25T08:30:35.248Z,1019.58
2018-06-25T08:32:38.895Z,1019.56
2018-06-25T08:33:39.201Z,1019.56
2018-06-25T08:35:44.295Z,1019.56
2018-06-25T08:36:44.375Z,1019.54
2018-06-25T08:38:54.734Z,1019.53
2018-06-25T08:39:54.760Z,1019.57
2018-06-25T08:41:52.098Z,1019.56
2018-06-25T08:42:50.471Z,1019.54
2018-06-25T08:44:55.294Z,1019.55
2018-06-25T08:45:55.118Z,1019.65
2018-06-25T08:48:08.046Z,1019.64
2018-06-25T08:49:07.702Z,1019.60
2018-06-25T08:51:10.897Z,1019.61
2018-06-25T08:52:11.349Z,1019.55
2018-06-25T08:54:17.010Z,1019.59
2018-06-25T08:55:16.396Z,1019.57
2018-06-25T08:56:16.262Z,1019.60
2018-06-25T08:57:19.452Z,1019.60
2018-06-25T08:58:16.121Z,1019.57
2018-06-25T08:59:16.105Z,1019.57
2018-06-25T09:00:16.092Z,1019.54
2018-06-25T09:01:16.050Z,1019.59
2018-06-25T09:02:16.053Z,1019.64
2018-06-25T09:03:16.137Z,1019.66
2018-06-25T09:04:15.997Z,1019.65
2018-06-25T09:05:16.003Z,1019.65
2018-06-25T09:06:15.921Z,1019.64
2018-06-25T09:07:15.905Z,1019.67
2018-06-25T09:08:15.897Z,1019.62
2018-06-25T09:09:15.878Z,1019.62
2018-06-25T09:10:15.877Z,1019.61
2018-06-25T09:11:15.896Z,1019.58
2018-06-25T09:12:15.782Z,1019.61
2018-06-25T09:13:15.766Z,1019.61
2018-06-25T09:14:15.733Z,1019.63
2018-06-25T09:15:15.755Z,1019.60
2018-06-25T09:16:15.686Z,1019.61
2018-06-25T09:17:15.715Z,1019.57
2018-06-25T09:18:15.644Z,1019.61
2018-06-25T09:19:15.631Z,1019.62
2018-06-25T09:20:15.593Z,1019.60
2018-06-25T09:21:15.575Z,1019.62
2018-06-25T09:22:15.564Z,1019.60
2018-06-25T09:23:15.520Z,1019.59
2018-06-25T09:24:15.494Z,1019.62
2018-06-25T09:25:15.471Z,1019.62
2018-06-25T09:26:15.455Z,1019.68
2018-06-25T09:27:15.421Z,1019.70
2018-06-25T09:28:15.400Z,1019.69
2018-06-25T09:29:15.378Z,1019.68
2018-06-25T09:30:15.360Z,1019.66
2018-06-25T09:31:15.336Z,1019.69
2018-06-25T09:32:15.312Z,1019.61
2018-06-25T09:33:15.278Z,1019.63
2018-06-25T09:34:34.387Z,1019.61
2018-06-25T09:36:23.529Z,1019.66
2018-06-25T09:37:23.210Z,1019.69
2018-06-25T09:39:26.433Z,1019.73
2018-06-25T09:40:26.272Z,1019.72
2018-06-25T09:42:30.686Z,1019.74
2018-06-25T09:43:30.341Z,1019.78
2018-06-25T09:45:24.725Z,1019.75
2018-06-25T09:46:24.839Z,1019.75
2018-06-25T09:48:30.333Z,1019.73
2018-06-25T09:49:30.070Z,1019.71
2018-06-25T09:51:34.189Z,1019.69
2018-06-25T09:52:33.540Z,1019.72
2018-06-25T09:54:42.373Z,1019.71
2018-06-25T09:55:42.295Z,1019.72
2018-06-25T09:57:44.656Z,1019.69
2018-06-25T09:58:44.218Z,1019.69
2018-06-25T10:00:50.429Z,1019.73
2018-06-25T10:01:50.044Z,1019.72
2018-06-25T10:03:52.043Z,1019.69
2018-06-25T10:04:51.724Z,1019.74
2018-06-25T10:06:54.196Z,1019.78
2018-06-25T10:07:54.198Z,1019.76
2018-06-25T10:09:56.316Z,1019.73
2018-06-25T10:10:56.039Z,1019.77
2018-06-25T10:12:59.234Z,1019.71
2018-06-25T10:13:59.216Z,1019.76
2018-06-25T10:16:01.690Z,1019.71
2018-06-25T10:17:01.650Z,1019.75
2018-06-25T10:19:17.933Z,1019.81
2018-06-25T10:20:17.519Z,1019.80
2018-06-25T10:22:16.374Z,1019.76
2018-06-25T10:23:16.200Z,1019.76
2018-06-25T10:25:24.041Z,1019.77
2018-06-25T10:26:24.019Z,1019.70
2018-06-25T10:28:26.968Z,1019.74
2018-06-25T10:29:26.882Z,1019.71
2018-06-25T10:31:23.461Z,1019.75
2018-06-25T10:32:22.728Z,1019.77
2018-06-25T10:34:18.966Z,1019.73
2018-06-25T10:35:18.647Z,1019.69
2018-06-25T10:37:23.978Z,1019.68
2018-06-25T10:38:23.680Z,1019.68
2018-06-25T10:39:23.257Z,1019.68
2018-06-25T10:40:23.203Z,1019.73
2018-06-25T10:41:23.307Z,1019.73
2018-06-25T10:42:23.589Z,1019.70
2018-06-25T10:43:23.951Z,1019.76
2018-06-25T10:44:23.114Z,1019.76
2018-06-25T10:45:23.208Z,1019.77
2018-06-25T10:46:23.028Z,1019.77
2018-06-25T10:47:23.137Z,1019.79
2018-06-25T10:48:22.985Z,1019.79
2018-06-25T10:49:23.004Z,1019.76
2018-06-25T10:50:23.078Z,1019.77
2018-06-25T10:51:22.937Z,1019.75
2018-06-25T10:52:22.878Z,1019.77
2018-06-25T10:53:22.877Z,1019.79
2018-06-25T10:54:22.971Z,1019.80
2018-06-25T10:55:22.898Z,1019.76
2018-06-25T10:56:22.846Z,1019.75
2018-06-25T10:57:22.759Z,1019.78
2018-06-25T10:58:22.900Z,1019.83
2018-06-25T10:59:22.723Z,1019.80
2018-06-25T11:00:22.811Z,1019.77
2018-06-25T11:01:22.667Z,1019.77
2018-06-25T11:02:22.832Z,1019.80
2018-06-25T11:03:22.717Z,1019.82
2018-06-25T11:04:22.628Z,1019.80
2018-06-25T11:05:22.556Z,1019.83
2018-06-25T11:06:22.539Z,1019.81
2018-06-25T11:07:22.685Z,1019.85
2018-06-25T11:08:22.780Z,1019.78
2018-06-25T11:09:22.643Z,1019.82
2018-06-25T11:10:22.635Z,1019.77
2018-06-25T11:11:22.475Z,1019.78
2018-06-25T11:12:22.408Z,1019.78
2018-06-25T11:13:22.420Z,1019.79
2018-06-25T11:14:22.403Z,1019.78
2018-06-25T11:15:22.671Z,1019.79
2018-06-25T11:16:22.281Z,1019.79
2018-06-25T11:17:22.281Z,1019.74
2018-06-25T11:18:22.235Z,1019.79
2018-06-25T11:19:22.218Z,1019.80
2018-06-25T11:20:22.216Z,1019.77
2018-06-25T11:21:22.199Z,1019.73
2018-06-25T11:22:22.142Z,1019.74
2018-06-25T11:23:22.121Z,1019.73
2018-06-25T11:24:22.220Z,1019.76
2018-06-25T11:25:22.069Z,1019.78
2018-06-25T11:26:22.041Z,1019.77
2018-06-25T11:27:22.114Z,1019.80
2018-06-25T11:28:21.994Z,1019.78
2018-06-25T11:29:21.967Z,1019.78
2018-06-25T11:30:22.001Z,1019.76
2018-06-25T11:31:21.940Z,1019.82
2018-06-25T11:32:21.897Z,1019.78
2018-06-25T11:33:21.925Z,1019.81
2018-06-25T11:34:21.857Z,1019.81
2018-06-25T11:35:21.817Z,1019.80
2018-06-25T11:36:21.809Z,1019.75
2018-06-25T11:37:21.800Z,1019.79
2018-06-25T11:38:21.746Z,1019.81
2018-06-25T11:39:21.727Z,1019.81
2018-06-25T11:40:21.971Z,1019.84
2018-06-25T11:41:21.758Z,1019.78
2018-06-25T11:42:21.654Z,1019.76
2018-06-25T11:43:21.753Z,1019.80
2018-06-25T11:44:21.693Z,1019.78
2018-06-25T11:45:21.648Z,1019.73
2018-06-25T11:46:21.673Z,1019.73
2018-06-25T11:47:40.276Z,1019.72
2018-06-25T11:49:30.023Z,1019.76
2018-06-25T11:50:29.504Z,1019.76
2018-06-25T11:54:16.090Z,1019.76
2018-06-25T11:55:15.630Z,1019.77
2018-06-25T11:57:34.525Z,1019.73
2018-06-25T11:58:34.490Z,1019.72
2018-06-25T11:59:34.765Z,1019.73
2018-06-25T12:00:34.375Z,1019.75
2018-06-25T12:01:34.358Z,1019.73
2018-06-25T12:02:34.477Z,1019.76
2018-06-25T12:03:34.310Z,1019.74
2018-06-25T12:04:34.285Z,1019.71
2018-06-25T12:05:34.258Z,1019.75
2018-06-25T12:06:34.248Z,1019.77
2018-06-25T12:07:34.219Z,1019.77
2018-06-25T12:08:34.292Z,1019.69
2018-06-25T12:09:34.179Z,1019.70
2018-06-25T12:10:34.198Z,1019.69
2018-06-25T12:11:34.133Z,1019.65
2018-06-25T12:12:34.190Z,1019.68
2018-06-25T12:13:34.096Z,1019.66
2018-06-25T12:14:34.069Z,1019.69
2018-06-25T12:15:34.066Z,1019.65
2018-06-25T12:16:34.033Z,1019.71
2018-06-25T12:17:34.026Z,1019.67
2018-06-25T12:18:33.993Z,1019.68
2018-06-25T12:19:33.975Z,1019.66
2018-06-25T12:20:33.971Z,1019.63
2018-06-25T12:21:33.927Z,1019.59
2018-06-25T12:22:33.903Z,1019.64
2018-06-25T12:23:33.917Z,1019.61
2018-06-25T12:24:33.864Z,1019.69
2018-06-25T12:25:33.901Z,1019.61
2018-06-25T12:26:33.849Z,1019.60
2018-06-25T12:27:33.836Z,1019.61
2018-06-25T12:28:33.793Z,1019.61
2018-06-25T12:29:33.760Z,1019.65
2018-06-25T12:30:33.754Z,1019.65
2018-06-25T12:31:33.753Z,1019.67
2018-06-25T12:32:33.713Z,1019.64
2018-06-25T12:33:33.694Z,1019.59
2018-06-25T12:34:33.671Z,1019.64
2018-06-25T12:35:33.646Z,1019.66
2018-06-25T12:36:33.636Z,1019.63
2018-06-25T12:37:33.600Z,1019.55
2018-06-25T12:38:33.589Z,1019.68
2018-06-25T12:39:33.574Z,1019.60
2018-06-25T12:40:33.564Z,1019.65
2018-06-25T12:41:33.566Z,1019.61
2018-06-25T12:42:33.519Z,1019.51
2018-06-25T12:43:33.493Z,1019.56
2018-06-25T12:44:33.503Z,1019.54
2018-06-25T12:45:33.460Z,1019.47
2018-06-25T12:46:33.439Z,1019.53
2018-06-25T12:47:33.433Z,1019.53
2018-06-25T12:48:33.400Z,1019.61
2018-06-25T12:49:33.375Z,1019.61
2018-06-25T12:50:33.374Z,1019.57
2018-06-25T12:51:33.345Z,1019.69
2018-06-25T12:52:33.330Z,1019.61
2018-06-25T12:53:33.304Z,1019.64
2018-06-25T12:54:33.280Z,1019.65
2018-06-25T12:55:33.265Z,1019.63
2018-06-25T12:56:33.256Z,1019.63
2018-06-25T12:57:33.231Z,1019.58
2018-06-25T12:58:33.214Z,1019.65
2018-06-25T12:59:33.226Z,1019.59
2018-06-25T13:00:33.203Z,1019.64
2018-06-25T13:01:33.166Z,1019.69
2018-06-25T13:02:33.152Z,1019.73
2018-06-25T13:03:33.128Z,1019.60
2018-06-25T13:04:33.122Z,1019.57
2018-06-25T13:05:33.117Z,1019.65
2018-06-25T13:06:33.073Z,1019.70
2018-06-25T13:07:33.057Z,1019.72
2018-06-25T13:08:33.048Z,1019.57
2018-06-25T13:09:33.020Z,1019.69
2018-06-25T13:10:33.011Z,1019.80
2018-06-25T13:11:32.998Z,1019.70
2018-06-25T13:12:33.024Z,1019.68
2018-06-25T13:13:32.964Z,1019.65
2018-06-25T13:14:32.941Z,1019.64
2018-06-25T13:15:32.938Z,1019.65
2018-06-25T13:16:32.914Z,1019.62
2018-06-25T13:17:32.911Z,1019.74
2018-06-25T13:18:32.889Z,1019.72
2018-06-25T13:19:32.880Z,1019.63
2018-06-25T13:20:32.928Z,1019.56
2018-06-25T13:21:32.840Z,1019.57
2018-06-25T13:22:32.830Z,1019.53
2018-06-25T13:23:32.821Z,1019.50
2018-06-25T13:24:32.800Z,1019.46
2018-06-25T13:25:32.807Z,1019.71
2018-06-25T13:26:32.770Z,1019.72